Time;durP1;ratioP1;P1;durP2;ratioP2;P2;SDS_P1;SDS_P2;PMS_P1;PMS_P2;Temp;Humidity;BMP_temperature;BMP_pressure;BME280_temperature;BME280_humidity;BME280_pressure;Samples;Min_cycle;Max_cycle;Signal;HPM_P1;HPM_P2
2023/07/06 00:01:56;;;;;;;9.20;5.70;;;;;;;;;;107903;1251;22575;-80
2023/07/06 00:04:23;;;;;;;7.00;4.90;;;;;;;;;;107902;1251;25376;-81
2023/07/06 00:06:49;;;;;;;24.80;5.40;;;;;;;;;;107888;1251;22626;-80
2023/07/06 00:09:16;;;;;;;15.10;5.60;;;;;;;;;;107947;1251;22640;-80
2023/07/06 00:11:44;;;;;;;6.60;4.80;;;;;;;;;;107874;1251;24378;-80
2023/07/06 00:14:11;;;;;;;9.20;4.60;;;;;;;;;;108006;1251;22528;-80
2023/07/06 00:16:41;;;;;;;9.90;5.40;;;;;;;;;;108336;1251;23026;-81
2023/07/06 00:19:08;;;;;;;7.90;4.40;;;;;;;;;;107907;1251;24372;-80
2023/07/06 00:21:34;;;;;;;10.70;5.50;;;;;;;;;;107933;1251;22588;-80
2023/07/06 00:24:01;;;;;;;11.60;5.80;;;;;;;;;;107878;1251;22637;-80
2023/07/06 00:26:27;;;;;;;9.30;4.40;;;;;;;;;;107877;1252;22598;-80
2023/07/06 00:28:55;;;;;;;9.10;6.50;;;;;;;;;;107886;1250;22952;-81
2023/07/06 00:31:31;;;;;;;10.90;6.80;;;;;;;;;;107942;1251;24212;-80
2023/07/06 00:34:04;;;;;;;20.90;11.10;;;;;;;;;;107898;1251;22588;-80
2023/07/06 00:36:31;;;;;;;24.80;12.50;;;;;;;;;;107888;1251;22695;-80
2023/07/06 00:38:57;;;;;;;15.80;9.80;;;;;;;;;;107909;1251;22641;-80
2023/07/06 00:41:24;;;;;;;14.10;10.60;;;;;;;;;;107918;1251;22638;-80
2023/07/06 00:43:52;;;;;;;20.60;11.90;;;;;;;;;;107810;1251;25506;-80
2023/07/06 00:46:18;;;;;;;22.60;11.10;;;;;;;;;;107935;1251;22657;-80
2023/07/06 00:48:45;;;;;;;9.80;7.40;;;;;;;;;;107945;1251;22588;-81
2023/07/06 00:51:19;;;;;;;12.80;6.80;;;;;;;;;;107916;1251;23008;-80
2023/07/06 00:53:56;;;;;;;10.70;6.50;;;;;;;;;;107938;1251;25455;-80
2023/07/06 00:56:23;;;;;;;11.60;6.00;;;;;;;;;;107980;1250;24417;-80
2023/07/06 00:58:50;;;;;;;7.90;5.40;;;;;;;;;;107956;1251;23397;-80
2023/07/06 01:01:17;;;;;;;8.60;5.60;;;;;;;;;;107859;1252;25497;-80
2023/07/06 01:03:44;;;;;;;10.20;5.40;;;;;;;;;;107816;1250;22530;-80
2023/07/06 01:06:19;;;;;;;7.10;4.90;;;;;;;;;;107863;1251;22540;-80
2023/07/06 01:08:46;;;;;;;6.90;4.50;;;;;;;;;;107950;1251;24413;-80
2023/07/06 01:11:14;;;;;;;11.20;5.40;;;;;;;;;;107917;1254;25359;-80
2023/07/06 01:13:53;;;;;;;9.60;5.50;;;;;;;;;;107886;1251;26017;-80
2023/07/06 01:16:30;;;;;;;7.70;4.80;;;;;;;;;;107878;1257;22542;-80
2023/07/06 01:19:06;;;;;;;8.80;4.80;;;;;;;;;;107632;1251;24298;-80
2023/07/06 01:21:49;;;;;;;8.70;4.30;;;;;;;;;;107874;1255;22518;-80
2023/07/06 01:24:35;;;;;;;8.80;4.70;;;;;;;;;;107870;1252;24230;-80
2023/07/06 01:27:08;;;;;;;7.80;4.80;;;;;;;;;;107924;1251;25367;-80
2023/07/06 01:29:50;;;;;;;7.90;5.00;;;;;;;;;;107994;1251;22635;-80
2023/07/06 01:32:21;;;;;;;7.00;5.00;;;;;;;;;;107857;1251;24402;-80
2023/07/06 01:34:53;;;;;;;7.10;4.50;;;;;;;;;;107900;1251;22601;-80
2023/07/06 01:37:36;;;;;;;9.50;4.90;;;;;;;;;;107949;1251;22749;-80
2023/07/06 01:40:05;;;;;;;7.90;5.60;;;;;;;;;;107879;1251;24222;-80
2023/07/06 01:42:31;;;;;;;9.70;5.20;;;;;;;;;;107896;1252;25394;-80
2023/07/06 01:44:59;;;;;;;11.20;4.90;;;;;;;;;;107930;1251;22567;-80
2023/07/06 01:47:26;;;;;;;6.70;4.70;;;;;;;;;;107933;1252;25809;-80
2023/07/06 01:49:53;;;;;;;7.40;4.70;;;;;;;;;;107970;1251;23021;-80
2023/07/06 01:52:26;;;;;;;8.90;5.10;;;;;;;;;;107840;1253;22519;-80
2023/07/06 01:54:58;;;;;;;15.30;4.90;;;;;;;;;;107921;1252;25390;-80
2023/07/06 01:57:26;;;;;;;7.40;5.00;;;;;;;;;;107903;1253;25329;-80
2023/07/06 01:59:53;;;;;;;9.10;4.60;;;;;;;;;;107896;1253;25314;-80
2023/07/06 02:02:20;;;;;;;13.70;4.80;;;;;;;;;;107916;1252;25340;-80
2023/07/06 02:04:47;;;;;;;10.30;4.80;;;;;;;;;;107948;1252;22579;-80
2023/07/06 02:07:14;;;;;;;7.30;4.60;;;;;;;;;;107980;1251;22601;-80
2023/07/06 02:09:44;;;;;;;11.10;4.90;;;;;;;;;;107824;1253;24351;-80
2023/07/06 02:12:12;;;;;;;6.40;4.50;;;;;;;;;;107918;1251;24081;-80
2023/07/06 02:14:40;;;;;;;7.00;4.70;;;;;;;;;;107883;1253;22610;-80
2023/07/06 02:17:07;;;;;;;5.70;4.30;;;;;;;;;;107912;1250;25775;-80
2023/07/06 02:19:35;;;;;;;7.10;4.80;;;;;;;;;;107847;1252;24204;-79
2023/07/06 02:22:04;;;;;;;12.30;4.30;;;;;;;;;;107884;1252;24379;-80
2023/07/06 02:24:31;;;;;;;5.80;3.90;;;;;;;;;;107903;1254;22642;-80
2023/07/06 02:26:57;;;;;;;10.30;4.60;;;;;;;;;;107855;1251;22617;-79
2023/07/06 02:29:24;;;;;;;7.90;4.50;;;;;;;;;;107961;1252;22559;-80
2023/07/06 02:31:50;;;;;;;7.40;5.20;;;;;;;;;;107951;1253;22575;-80
2023/07/06 02:34:24;;;;;;;8.80;5.00;;;;;;;;;;107890;1251;22524;-80
2023/07/06 02:36:51;;;;;;;7.50;4.70;;;;;;;;;;109349;1251;22677;-80
2023/07/06 02:39:20;;;;;;;7.40;5.40;;;;;;;;;;108118;1251;24351;-80
2023/07/06 02:41:46;;;;;;;8.60;5.80;;;;;;;;;;107934;1251;22691;-79
2023/07/06 02:44:13;;;;;;;11.10;5.00;;;;;;;;;;107976;1251;25525;-80
2023/07/06 02:46:39;;;;;;;7.00;4.40;;;;;;;;;;107923;1251;25295;-80
2023/07/06 02:49:05;;;;;;;13.20;5.90;;;;;;;;;;107865;1254;25440;-80
2023/07/06 02:51:35;;;;;;;6.40;4.30;;;;;;;;;;107926;1253;24219;-80
2023/07/06 02:54:02;;;;;;;7.70;4.80;;;;;;;;;;107850;1250;22619;-80
2023/07/06 02:56:28;;;;;;;11.20;4.90;;;;;;;;;;107814;1253;22674;-80
2023/07/06 02:58:55;;;;;;;9.50;5.00;;;;;;;;;;107879;1253;25033;-80
2023/07/06 03:01:21;;;;;;;8.30;5.90;;;;;;;;;;107891;1249;24253;-80
2023/07/06 03:03:51;;;;;;;8.80;5.10;;;;;;;;;;107868;1251;22525;-80
2023/07/06 03:06:18;;;;;;;7.70;5.20;;;;;;;;;;108022;1253;24370;-80
2023/07/06 03:08:45;;;;;;;9.30;5.80;;;;;;;;;;107813;1257;24322;-79
2023/07/06 03:11:11;;;;;;;10.20;4.80;;;;;;;;;;107805;1253;22534;-80
2023/07/06 03:13:37;;;;;;;7.60;5.00;;;;;;;;;;107864;1253;22540;-80
2023/07/06 03:16:05;;;;;;;6.30;4.70;;;;;;;;;;107921;1252;22720;-80
2023/07/06 03:18:31;;;;;;;8.90;3.90;;;;;;;;;;107852;1251;22604;-80
2023/07/06 03:20:57;;;;;;;12.30;4.70;;;;;;;;;;107878;1252;22533;-81
2023/07/06 03:23:24;;;;;;;7.00;4.40;;;;;;;;;;107869;1252;25390;-80
2023/07/06 03:25:53;;;;;;;7.30;4.30;;;;;;;;;;107926;1250;22560;-80
2023/07/06 03:28:20;;;;;;;9.70;4.80;;;;;;;;;;107830;1253;25500;-80
2023/07/06 03:30:53;;;;;;;13.50;10.30;;;;;;;;;;107933;1250;22563;-80
2023/07/06 03:33:19;;;;;;;10.20;4.60;;;;;;;;;;107838;1254;22616;-80
2023/07/06 03:35:46;;;;;;;8.30;4.50;;;;;;;;;;107929;1251;24213;-80
2023/07/06 03:38:12;;;;;;;6.60;5.00;;;;;;;;;;107844;1252;22583;-80
2023/07/06 03:40:38;;;;;;;8.60;5.60;;;;;;;;;;108094;1253;22574;-80
2023/07/06 03:43:06;;;;;;;9.30;4.20;;;;;;;;;;107795;1253;22547;-80
2023/07/06 03:45:32;;;;;;;10.90;5.00;;;;;;;;;;107940;1251;22550;-80
2023/07/06 03:47:59;;;;;;;15.20;10.90;;;;;;;;;;107881;1254;22609;-80
2023/07/06 03:50:26;;;;;;;7.70;5.80;;;;;;;;;;107936;1253;22635;-80
2023/07/06 03:52:52;;;;;;;6.70;4.50;;;;;;;;;;107926;1253;22564;-80
2023/07/06 03:55:21;;;;;;;8.00;4.90;;;;;;;;;;107898;1250;23420;-80
2023/07/06 03:57:49;;;;;;;7.70;4.80;;;;;;;;;;107877;1252;22999;-80
2023/07/06 04:00:22;;;;;;;9.20;4.50;;;;;;;;;;107945;1253;22998;-81
2023/07/06 04:02:49;;;;;;;12.80;5.40;;;;;;;;;;108009;1254;25316;-80
2023/07/06 04:05:17;;;;;;;10.70;4.70;;;;;;;;;;107822;1250;22565;-81
2023/07/06 04:07:44;;;;;;;7.00;4.10;;;;;;;;;;107946;1251;24376;-80
2023/07/06 04:10:10;;;;;;;7.30;4.60;;;;;;;;;;107923;1250;25330;-80
2023/07/06 04:12:37;;;;;;;11.10;5.00;;;;;;;;;;107890;1253;22584;-80
2023/07/06 04:15:05;;;;;;;7.90;4.60;;;;;;;;;;107899;1253;25331;-80
2023/07/06 04:17:31;;;;;;;8.00;4.60;;;;;;;;;;107893;1250;22585;-80
2023/07/06 04:19:58;;;;;;;16.90;4.80;;;;;;;;;;107900;1253;22638;-80
2023/07/06 04:22:24;;;;;;;11.20;5.10;;;;;;;;;;107934;1252;22654;-80
2023/07/06 04:24:51;;;;;;;12.20;5.10;;;;;;;;;;107913;1251;24445;-80
2023/07/06 04:27:17;;;;;;;7.30;4.80;;;;;;;;;;107866;1251;24229;-80
2023/07/06 04:29:44;;;;;;;8.70;4.60;;;;;;;;;;107843;1255;26437;-80
2023/07/06 04:32:10;;;;;;;13.50;5.10;;;;;;;;;;107859;1252;25257;-80
2023/07/06 04:34:39;;;;;;;8.60;4.90;;;;;;;;;;107888;1255;24322;-80
2023/07/06 04:37:07;;;;;;;8.80;4.60;;;;;;;;;;107877;1253;22531;-80
2023/07/06 04:39:36;;;;;;;7.30;5.60;;;;;;;;;;107842;1251;22653;-80
2023/07/06 04:42:03;;;;;;;10.40;5.40;;;;;;;;;;107890;1253;23665;-80
2023/07/06 04:44:30;;;;;;;17.50;5.90;;;;;;;;;;107870;1254;22647;-80
2023/07/06 04:46:59;;;;;;;9.30;4.90;;;;;;;;;;107917;1252;22720;-80
2023/07/06 04:49:25;;;;;;;;;;;;;;;;;;107910;1250;22617;-80
2023/07/06 04:51:52;;;;;;;8.90;6.00;;;;;;;;;;107892;1252;22667;-80
2023/07/06 04:54:18;;;;;;;12.90;7.50;;;;;;;;;;107792;1250;22544;-80
2023/07/06 04:56:45;;;;;;;11.00;7.10;;;;;;;;;;107914;1250;25615;-81
2023/07/06 04:59:11;;;;;;;9.40;5.80;;;;;;;;;;107877;1252;23794;-80
2023/07/06 05:01:38;;;;;;;8.20;5.60;;;;;;;;;;108011;1251;22625;-80
2023/07/06 05:04:04;;;;;;;10.10;6.50;;;;;;;;;;108050;1255;25379;-80
2023/07/06 05:06:31;;;;;;;10.50;5.90;;;;;;;;;;107889;1251;22556;-81
2023/07/06 05:08:58;;;;;;;9.00;5.50;;;;;;;;;;107833;1255;22577;-81
2023/07/06 05:11:25;;;;;;;15.10;7.50;;;;;;;;;;108081;1251;25481;-81
2023/07/06 05:13:51;;;;;;;10.60;5.50;;;;;;;;;;108181;1251;22676;-81
2023/07/06 05:16:17;;;;;;;8.00;5.80;;;;;;;;;;107954;1252;22994;-80
2023/07/06 05:18:44;;;;;;;11.60;6.40;;;;;;;;;;107846;1252;22618;-81
2023/07/06 05:21:10;;;;;;;10.40;6.00;;;;;;;;;;107929;1255;24346;-81
2023/07/06 05:23:37;;;;;;;8.50;6.00;;;;;;;;;;107880;1252;22653;-80
2023/07/06 05:26:03;;;;;;;7.30;4.90;;;;;;;;;;107922;1251;22660;-81
2023/07/06 05:28:30;;;;;;;9.00;5.30;;;;;;;;;;107954;1253;23993;-80
2023/07/06 05:30:57;;;;;;;12.60;5.60;;;;;;;;;;107948;1253;22798;-80
2023/07/06 05:33:25;;;;;;;14.70;6.10;;;;;;;;;;108005;1253;22763;-80
2023/07/06 05:35:51;;;;;;;8.30;5.20;;;;;;;;;;107947;1253;22657;-80
2023/07/06 05:38:18;;;;;;;11.50;5.20;;;;;;;;;;108014;1251;23252;-80
2023/07/06 05:40:44;;;;;;;12.00;5.50;;;;;;;;;;107964;1251;22681;-80
2023/07/06 05:43:11;;;;;;;10.50;5.10;;;;;;;;;;107986;1255;23142;-80
2023/07/06 05:45:37;;;;;;;8.90;5.20;;;;;;;;;;107934;1250;23073;-81
2023/07/06 05:48:04;;;;;;;12.20;5.10;;;;;;;;;;107984;1253;22593;-81
2023/07/06 05:50:30;;;;;;;9.00;4.70;;;;;;;;;;107955;1255;25349;-81
2023/07/06 05:52:57;;;;;;;9.20;5.80;;;;;;;;;;107967;1251;24352;-81
2023/07/06 05:55:24;;;;;;;11.70;5.30;;;;;;;;;;107959;1251;22528;-80
2023/07/06 05:57:50;;;;;;;8.90;4.40;;;;;;;;;;107935;1253;22640;-80
2023/07/06 06:00:17;;;;;;;8.20;4.90;;;;;;;;;;108043;1253;22510;-80
2023/07/06 06:02:45;;;;;;;6.50;4.50;;;;;;;;;;108233;1251;22630;-81
2023/07/06 06:05:14;;;;;;;14.40;6.00;;;;;;;;;;108049;1254;22532;-81
2023/07/06 06:07:43;;;;;;;10.60;5.40;;;;;;;;;;108154;1251;22639;-80
2023/07/06 06:10:10;;;;;;;9.30;5.90;;;;;;;;;;108298;1255;22563;-80
2023/07/06 06:12:37;;;;;;;12.60;5.80;;;;;;;;;;108361;1252;22657;-81
2023/07/06 06:15:03;;;;;;;13.40;5.00;;;;;;;;;;108798;1252;24239;-80
2023/07/06 06:17:30;;;;;;;12.00;5.20;;;;;;;;;;108227;1253;23278;-81
2023/07/06 06:19:56;;;;;;;6.50;4.30;;;;;;;;;;108187;1255;25464;-81
2023/07/06 06:22:23;;;;;;;8.30;4.80;;;;;;;;;;108186;1252;22601;-80
2023/07/06 06:24:49;;;;;;;12.00;4.60;;;;;;;;;;108079;1253;22607;-80
2023/07/06 06:27:17;;;;;;;10.40;5.50;;;;;;;;;;108133;1255;22616;-80
2023/07/06 06:29:44;;;;;;;10.90;5.40;;;;;;;;;;108203;1252;22583;-80
2023/07/06 06:32:11;;;;;;;10.10;5.10;;;;;;;;;;108332;1255;22687;-81
2023/07/06 06:34:37;;;;;;;9.10;6.00;;;;;;;;;;108419;1255;22609;-81
2023/07/06 06:37:04;;;;;;;9.80;5.30;;;;;;;;;;108401;1251;26352;-80
2023/07/06 06:39:31;;;;;;;6.50;4.60;;;;;;;;;;108992;1251;22520;-80
2023/07/06 06:41:58;;;;;;;8.70;4.60;;;;;;;;;;110479;1256;22361;-81
2023/07/06 06:44:27;;;;;;;7.70;4.20;;;;;;;;;;110567;1251;23017;-81
2023/07/06 06:46:53;;;;;;;10.00;5.30;;;;;;;;;;110588;1252;23144;-81
2023/07/06 06:49:21;;;;;;;9.50;5.50;;;;;;;;;;110639;1251;22518;-81
2023/07/06 06:51:47;;;;;;;9.20;5.00;;;;;;;;;;110590;1251;22371;-81
2023/07/06 06:54:14;;;;;;;8.50;5.00;;;;;;;;;;110695;1251;22290;-81
2023/07/06 06:56:40;;;;;;;7.00;5.00;;;;;;;;;;108465;1255;22514;-80
2023/07/06 06:59:09;;;;;;;8.50;4.60;;;;;;;;;;108223;1251;22618;-80
2023/07/06 07:01:35;;;;;;;8.50;4.00;;;;;;;;;;108179;1252;22655;-80
2023/07/06 07:04:02;;;;;;;14.10;4.20;;;;;;;;;;108328;1266;23341;-80
2023/07/06 07:06:29;;;;;;;7.00;4.20;;;;;;;;;;108148;1251;22642;-80
2023/07/06 07:08:57;;;;;;;11.50;5.10;;;;;;;;;;107900;1251;258486;-80
2023/07/06 07:11:24;;;;;;;;;;;;;;;;;;108106;1252;24184;-81
2023/07/06 07:13:51;;;;;;;7.90;4.40;;;;;;;;;;108191;1251;22524;-80
2023/07/06 07:16:17;;;;;;;16.20;5.90;;;;;;;;;;107942;1256;23067;-80
2023/07/06 07:18:44;;;;;;;10.10;5.60;;;;;;;;;;108102;1254;22525;-80
2023/07/06 07:21:12;;;;;;;11.50;5.40;;;;;;;;;;108086;1254;22595;-80
2023/07/06 07:23:41;;;;;;;9.30;4.80;;;;;;;;;;108107;1252;22949;-80
2023/07/06 07:26:07;;;;;;;;;;;;;;;;;;108147;1253;22614;-80
2023/07/06 07:28:33;;;;;;;9.00;4.60;;;;;;;;;;108057;1251;22543;-80
2023/07/06 07:31:00;;;;;;;11.80;5.40;;;;;;;;;;108096;1255;22530;-80
2023/07/06 07:33:29;;;;;;;9.10;5.40;;;;;;;;;;108281;1251;22566;-80
2023/07/06 07:35:57;;;;;;;14.20;6.40;;;;;;;;;;108190;1256;25343;-80
2023/07/06 07:38:24;;;;;;;19.00;7.40;;;;;;;;;;108247;1251;24366;-80
2023/07/06 07:40:54;;;;;;;16.20;6.20;;;;;;;;;;108147;1255;22530;-81
2023/07/06 07:43:25;;;;;;;12.00;5.30;;;;;;;;;;108359;1254;24223;-80
2023/07/06 07:45:53;;;;;;;9.70;6.00;;;;;;;;;;108222;1251;22578;-80
2023/07/06 07:48:22;;;;;;;14.60;6.90;;;;;;;;;;108095;1251;24222;-79
2023/07/06 07:50:48;;;;;;;;;;;;;;;;;;108100;1267;25033;-80
2023/07/06 07:53:15;;;;;;;8.00;4.20;;;;;;;;;;108226;1251;25424;-80
2023/07/06 07:55:41;;;;;;;9.20;5.40;;;;;;;;;;108133;1251;23925;-80
2023/07/06 07:58:08;;;;;;;8.80;4.30;;;;;;;;;;108153;1256;22636;-80
2023/07/06 08:00:34;;;;;;;8.70;4.00;;;;;;;;;;108167;1257;22546;-80
2023/07/06 08:03:04;;;;;;;6.80;4.30;;;;;;;;;;108285;1256;24197;-80
2023/07/06 08:05:31;;;;;;;11.60;4.90;;;;;;;;;;108113;1255;22556;-80
2023/07/06 08:07:57;;;;;;;6.90;4.40;;;;;;;;;;108069;1255;22637;-80
2023/07/06 08:10:24;;;;;;;10.90;5.20;;;;;;;;;;107942;1249;24254;-79
2023/07/06 08:12:50;;;;;;;14.00;5.60;;;;;;;;;;108330;1251;22661;-80
2023/07/06 08:15:17;;;;;;;13.30;6.30;;;;;;;;;;108105;1250;23254;-80
2023/07/06 08:17:43;;;;;;;15.80;6.70;;;;;;;;;;108152;1256;23065;-80
2023/07/06 08:20:10;;;;;;;10.40;4.50;;;;;;;;;;108170;1255;22534;-80
2023/07/06 08:22:37;;;;;;;10.10;4.50;;;;;;;;;;108120;1251;22668;-81
2023/07/06 08:25:08;;;;;;;7.40;3.90;;;;;;;;;;108142;1251;22665;-80
2023/07/06 08:27:35;;;;;;;9.70;3.80;;;;;;;;;;108243;1255;22528;-80
2023/07/06 08:30:02;;;;;;;9.20;3.70;;;;;;;;;;108177;1251;23807;-80
2023/07/06 08:32:28;;;;;;;12.60;3.90;;;;;;;;;;108308;1252;22517;-80
2023/07/06 08:34:55;;;;;;;6.70;3.90;;;;;;;;;;108151;1251;22525;-80
2023/07/06 08:37:21;;;;;;;9.40;3.30;;;;;;;;;;108095;1256;22534;-79
2023/07/06 08:39:48;;;;;;;11.30;5.70;;;;;;;;;;108143;1256;22587;-80
2023/07/06 08:42:15;;;;;;;7.90;3.50;;;;;;;;;;108181;1251;22553;-80
2023/07/06 08:44:53;;;;;;;6.20;2.90;;;;;;;;;;108153;1251;25813;-80
2023/07/06 08:47:25;;;;;;;6.50;3.90;;;;;;;;;;107976;1251;22586;-80
2023/07/06 08:49:51;;;;;;;7.10;3.70;;;;;;;;;;108145;1254;22531;-80
2023/07/06 08:52:18;;;;;;;7.20;3.40;;;;;;;;;;108393;1253;22587;-80
2023/07/06 08:54:46;;;;;;;5.60;3.30;;;;;;;;;;108119;1254;22531;-80
2023/07/06 08:57:15;;;;;;;9.50;4.20;;;;;;;;;;109430;1251;22869;-80
2023/07/06 08:59:41;;;;;;;;;;;;;;;;;;108092;1251;22593;-80
2023/07/06 09:02:09;;;;;;;5.30;3.40;;;;;;;;;;108245;1251;23231;-80
2023/07/06 09:04:35;;;;;;;5.70;3.90;;;;;;;;;;109100;1256;22578;-80
2023/07/06 09:07:02;;;;;;;6.50;3.70;;;;;;;;;;108135;1255;22648;-79
2023/07/06 09:09:28;;;;;;;6.40;3.20;;;;;;;;;;108324;1251;22556;-79
2023/07/06 09:11:56;;;;;;;16.30;3.00;;;;;;;;;;108174;1251;22563;-79
2023/07/06 09:14:27;;;;;;;11.40;3.70;;;;;;;;;;108478;1250;25244;-79
2023/07/06 09:16:57;;;;;;;9.10;3.20;;;;;;;;;;108413;1251;22538;-79
2023/07/06 09:19:24;;;;;;;6.50;2.70;;;;;;;;;;108228;1251;22547;-79
2023/07/06 09:21:51;;;;;;;5.90;2.80;;;;;;;;;;108157;1251;22539;-79
2023/07/06 09:24:17;;;;;;;6.00;3.40;;;;;;;;;;107706;1254;25290;-79
2023/07/06 09:26:44;;;;;;;5.70;3.30;;;;;;;;;;107606;1251;22636;-79
2023/07/06 09:29:10;;;;;;;6.20;2.60;;;;;;;;;;108442;1251;22519;-79
2023/07/06 09:31:37;;;;;;;4.20;2.80;;;;;;;;;;108501;1251;22745;-80
2023/07/06 09:34:07;;;;;;;6.60;3.60;;;;;;;;;;108374;1251;22639;-79
2023/07/06 09:36:34;;;;;;;8.90;3.10;;;;;;;;;;108333;1251;24366;-79
2023/07/06 09:39:03;;;;;;;10.20;2.80;;;;;;;;;;108278;1251;22521;-79
2023/07/06 09:41:31;;;;;;;9.30;3.30;;;;;;;;;;107552;1251;22549;-79
2023/07/06 09:44:03;;;;;;;5.60;3.30;;;;;;;;;;107834;1251;24372;-79
2023/07/06 09:46:33;;;;;;;8.60;3.80;;;;;;;;;;107563;1251;22561;-79
2023/07/06 09:48:59;;;;;;;7.40;3.80;;;;;;;;;;109690;1251;22832;-79
2023/07/06 09:51:31;;;;;;;10.40;5.20;;;;;;;;;;107601;1251;24366;-80
2023/07/06 09:54:02;;;;;;;7.70;2.90;;;;;;;;;;107680;1255;22541;-79
2023/07/06 09:56:29;;;;;;;6.90;3.40;;;;;;;;;;108197;1251;25344;-79
2023/07/06 09:58:57;;;;;;;7.40;3.30;;;;;;;;;;108160;1251;22667;-79
2023/07/06 10:01:26;;;;;;;4.40;3.10;;;;;;;;;;108220;1251;22552;-79
2023/07/06 10:04:08;;;;;;;5.30;3.30;;;;;;;;;;108261;1251;22519;-79
2023/07/06 10:06:34;;;;;;;8.80;4.00;;;;;;;;;;108283;1255;22524;-79
2023/07/06 10:09:03;;;;;;;12.90;4.60;;;;;;;;;;107590;1251;23349;-80
2023/07/06 10:11:34;;;;;;;5.90;2.70;;;;;;;;;;107636;1251;25471;-79
2023/07/06 10:14:33;;;;;;;4.60;2.60;;;;;;;;;;107655;1251;23435;-79
2023/07/06 10:17:12;;;;;;;8.10;3.40;;;;;;;;;;107206;1251;25394;-79
2023/07/06 10:19:46;;;;;;;5.90;3.10;;;;;;;;;;107535;1254;22660;-79
2023/07/06 10:22:18;;;;;;;5.60;3.10;;;;;;;;;;107628;1250;23613;-79
2023/07/06 10:24:54;;;;;;;8.40;4.00;;;;;;;;;;107789;1251;22559;-79
2023/07/06 10:27:26;;;;;;;7.20;3.10;;;;;;;;;;107701;1254;23255;-79
2023/07/06 10:29:54;;;;;;;8.20;2.90;;;;;;;;;;107738;1250;22527;-79
2023/07/06 10:32:24;;;;;;;5.40;3.60;;;;;;;;;;108490;1251;23136;-79
2023/07/06 10:34:54;;;;;;;4.90;3.20;;;;;;;;;;108327;1250;24971;-79
2023/07/06 10:37:24;;;;;;;7.40;3.40;;;;;;;;;;108213;1251;24434;-79
2023/07/06 10:39:53;;;;;;;7.00;2.90;;;;;;;;;;107874;1256;22543;-79
2023/07/06 10:42:20;;;;;;;4.50;2.80;;;;;;;;;;107953;1251;23129;-80
2023/07/06 10:44:55;;;;;;;6.60;3.50;;;;;;;;;;108170;1251;25325;-80
2023/07/06 10:47:33;;;;;;;5.40;3.00;;;;;;;;;;108019;1252;26236;-80
2023/07/06 10:50:00;;;;;;;;;;;;;;;;;;108191;1251;25302;-79
2023/07/06 10:52:30;;;;;;;7.70;3.70;;;;;;;;;;108360;1251;22567;-80
2023/07/06 10:54:56;;;;;;;5.30;3.40;;;;;;;;;;108168;1251;25464;-80
2023/07/06 10:57:25;;;;;;;6.70;4.30;;;;;;;;;;107855;1251;22685;-80
2023/07/06 10:59:53;;;;;;;8.60;6.00;;;;;;;;;;107908;1257;25101;-79
2023/07/06 11:02:21;;;;;;;7.30;3.70;;;;;;;;;;108062;1251;22538;-80
2023/07/06 11:05:07;;;;;;;5.10;3.30;;;;;;;;;;108018;1251;25467;-79
2023/07/06 11:07:42;;;;;;;7.60;3.00;;;;;;;;;;108108;1251;22590;-79
2023/07/06 11:10:12;;;;;;;7.40;3.80;;;;;;;;;;108009;1251;24225;-80
2023/07/06 11:12:58;;;;;;;4.90;3.00;;;;;;;;;;107836;1251;22528;-81
2023/07/06 11:15:25;;;;;;;7.80;3.40;;;;;;;;;;107846;1251;22640;-80
2023/07/06 11:17:52;;;;;;;8.10;3.70;;;;;;;;;;107745;1254;22566;-80
2023/07/06 11:20:23;;;;;;;9.00;3.90;;;;;;;;;;107887;1250;22542;-80
2023/07/06 11:22:52;;;;;;;8.60;3.30;;;;;;;;;;107936;1251;23763;-79
2023/07/06 11:25:19;;;;;;;8.10;4.20;;;;;;;;;;107851;1254;22548;-80
2023/07/06 11:27:46;;;;;;;4.50;3.00;;;;;;;;;;107777;1252;25275;-79
2023/07/06 11:30:14;;;;;;;6.90;3.60;;;;;;;;;;107803;1251;22532;-80
2023/07/06 11:33:00;;;;;;;4.50;3.00;;;;;;;;;;107971;1251;23759;-80
2023/07/06 11:35:48;;;;;;;6.90;3.60;;;;;;;;;;107849;1251;22628;-80
2023/07/06 11:38:14;;;;;;;;;;;;;;;;;;107623;1251;22620;-80
2023/07/06 11:40:46;;;;;;;8.50;5.60;;;;;;;;;;107872;1251;25027;-80
2023/07/06 11:43:39;;;;;;;7.40;4.70;;;;;;;;;;108039;1251;22561;-80
2023/07/06 11:46:29;;;;;;;15.50;7.50;;;;;;;;;;107824;1251;22527;-80
2023/07/06 11:49:02;;;;;;;20.90;9.30;;;;;;;;;;107766;1251;22605;-80
2023/07/06 11:51:29;;;;;;;14.70;8.20;;;;;;;;;;107833;1253;22524;-79
2023/07/06 11:53:57;;;;;;;14.00;6.70;;;;;;;;;;108083;1251;22656;-80
2023/07/06 11:56:35;;;;;;;10.20;5.60;;;;;;;;;;107588;1251;24367;-79
2023/07/06 11:59:04;;;;;;;10.70;4.30;;;;;;;;;;107753;1251;26015;-80
2023/07/06 12:01:33;;;;;;;8.50;4.30;;;;;;;;;;107913;1251;24221;-80
2023/07/06 12:04:02;;;;;;;8.50;4.00;;;;;;;;;;109703;1251;24364;-80
2023/07/06 12:06:30;;;;;;;9.30;3.80;;;;;;;;;;107846;1251;24375;-80
2023/07/06 12:09:03;;;;;;;8.70;4.60;;;;;;;;;;107484;1250;24454;-80
2023/07/06 12:11:29;;;;;;;13.50;5.50;;;;;;;;;;107610;1251;22646;-80
2023/07/06 12:13:56;;;;;;;9.30;4.90;;;;;;;;;;108022;1251;23297;-80
2023/07/06 12:16:27;;;;;;;11.50;5.30;;;;;;;;;;108089;1251;22521;-80
2023/07/06 12:18:55;;;;;;;8.80;5.10;;;;;;;;;;108164;1251;22577;-80
2023/07/06 12:21:32;;;;;;;6.50;4.10;;;;;;;;;;108085;1251;22705;-80
2023/07/06 12:23:59;;;;;;;6.90;4.10;;;;;;;;;;108154;1254;24342;-80
2023/07/06 12:26:29;;;;;;;5.80;3.60;;;;;;;;;;108051;1251;22543;-80
2023/07/06 12:28:56;;;;;;;9.00;3.60;;;;;;;;;;108189;1254;26318;-80
2023/07/06 12:31:23;;;;;;;9.00;3.50;;;;;;;;;;108129;1251;22608;-81
2023/07/06 12:33:53;;;;;;;9.70;3.50;;;;;;;;;;108157;1251;23710;-80
2023/07/06 12:36:21;;;;;;;11.10;3.60;;;;;;;;;;107925;1251;24225;-79
2023/07/06 12:38:49;;;;;;;4.50;3.20;;;;;;;;;;107860;1251;24470;-79
2023/07/06 12:41:18;;;;;;;7.70;3.80;;;;;;;;;;107827;1250;24483;-79
2023/07/06 12:43:45;;;;;;;6.50;3.70;;;;;;;;;;108032;1251;25494;-80
2023/07/06 12:46:12;;;;;;;11.70;4.10;;;;;;;;;;107215;1251;24891;-79
2023/07/06 12:48:42;;;;;;;11.80;3.90;;;;;;;;;;107371;1251;22524;-79
2023/07/06 12:51:11;;;;;;;10.40;3.50;;;;;;;;;;107394;1251;22664;-81
2023/07/06 12:53:37;;;;;;;;;;;;;;;;;;108183;1251;24192;-81
2023/07/06 12:56:10;;;;;;;9.50;4.70;;;;;;;;;;107812;1251;25397;-80
2023/07/06 12:58:37;;;;;;;11.10;4.60;;;;;;;;;;107865;1254;26275;-79
2023/07/06 13:01:04;;;;;;;8.20;4.40;;;;;;;;;;107751;1251;22662;-81
2023/07/06 13:03:31;;;;;;;9.10;5.00;;;;;;;;;;108063;1253;25411;-80
2023/07/06 13:05:57;;;;;;;15.90;5.20;;;;;;;;;;107807;1254;25357;-81
2023/07/06 13:08:24;;;;;;;12.20;4.90;;;;;;;;;;107552;1251;24288;-80
2023/07/06 13:10:59;;;;;;;11.40;4.50;;;;;;;;;;108981;1251;23013;-81
2023/07/06 13:13:25;;;;;;;10.50;4.50;;;;;;;;;;108044;1251;23032;-80
2023/07/06 13:15:56;;;;;;;9.60;4.70;;;;;;;;;;108124;1251;23380;-81
2023/07/06 13:18:25;;;;;;;11.00;3.80;;;;;;;;;;108109;1251;22656;-81
2023/07/06 13:20:53;;;;;;;10.90;4.00;;;;;;;;;;108020;1251;22527;-81
2023/07/06 13:23:20;;;;;;;9.20;3.60;;;;;;;;;;108404;1251;22649;-80
2023/07/06 13:25:49;;;;;;;11.40;3.70;;;;;;;;;;107972;1251;24301;-81
2023/07/06 13:28:20;;;;;;;10.40;4.10;;;;;;;;;;108136;1251;24223;-81
2023/07/06 13:30:47;;;;;;;8.80;3.80;;;;;;;;;;107875;1251;22837;-81
2023/07/06 13:33:15;;;;;;;8.10;4.30;;;;;;;;;;107973;1251;23948;-81
2023/07/06 13:35:41;;;;;;;10.20;3.90;;;;;;;;;;107955;1251;22657;-81
2023/07/06 13:38:08;;;;;;;10.50;3.80;;;;;;;;;;107772;1251;22637;-81
2023/07/06 13:40:37;;;;;;;9.10;3.60;;;;;;;;;;107567;1251;24121;-81
2023/07/06 13:43:04;;;;;;;5.80;3.20;;;;;;;;;;107916;1253;22482;-81
2023/07/06 13:45:33;;;;;;;10.30;3.40;;;;;;;;;;107787;1252;22643;-81
2023/07/06 13:48:00;;;;;;;6.00;3.20;;;;;;;;;;107775;1251;23563;-79
2023/07/06 13:50:27;;;;;;;7.80;3.60;;;;;;;;;;107882;1251;23238;-81
2023/07/06 13:52:53;;;;;;;8.30;3.20;;;;;;;;;;108008;1251;22661;-81
2023/07/06 13:55:33;;;;;;;8.60;3.60;;;;;;;;;;107847;1251;22644;-80
2023/07/06 13:58:00;;;;;;;7.70;3.50;;;;;;;;;;107803;1251;22566;-80
2023/07/06 14:00:27;;;;;;;9.00;3.10;;;;;;;;;;107876;1251;22668;-81
2023/07/06 14:02:54;;;;;;;8.60;3.20;;;;;;;;;;108057;1251;22660;-80
2023/07/06 14:05:21;;;;;;;7.30;3.40;;;;;;;;;;107987;1251;22620;-80
2023/07/06 14:07:48;;;;;;;7.90;2.70;;;;;;;;;;107820;1253;22560;-81
2023/07/06 14:10:17;;;;;;;6.90;3.30;;;;;;;;;;107896;1255;25461;-81
2023/07/06 14:12:48;;;;;;;7.40;3.40;;;;;;;;;;107969;1251;22544;-81
2023/07/06 14:15:14;;;;;;;7.20;3.60;;;;;;;;;;107869;1251;24391;-81
2023/07/06 14:17:43;;;;;;;5.30;3.70;;;;;;;;;;107700;1251;25514;-80
2023/07/06 14:20:10;;;;;;;7.30;3.80;;;;;;;;;;107707;1251;22617;-81
2023/07/06 14:22:37;;;;;;;8.80;3.80;;;;;;;;;;107743;1251;24192;-81
2023/07/06 14:25:24;;;;;;;8.20;3.80;;;;;;;;;;107728;1250;22539;-81
2023/07/06 14:27:51;;;;;;;7.40;3.80;;;;;;;;;;108136;1251;22654;-81
2023/07/06 14:30:18;;;;;;;5.50;3.40;;;;;;;;;;110213;1251;22365;-81
2023/07/06 14:32:45;;;;;;;6.20;3.30;;;;;;;;;;108805;1251;25155;-81
2023/07/06 14:35:12;;;;;;;7.20;3.90;;;;;;;;;;107825;1254;25462;-81
2023/07/06 14:37:38;;;;;;;7.40;3.30;;;;;;;;;;107839;1251;25279;-81